createdAt,value
2019-03-18T00:00:35.596Z,927.00
2019-03-18T00:01:35.667Z,926.99
2019-03-18T00:02:35.713Z,926.97
2019-03-18T00:03:35.746Z,926.92
2019-03-18T00:04:35.796Z,926.91
2019-03-18T00:05:35.845Z,926.97
2019-03-18T00:06:35.882Z,926.99
2019-03-18T00:07:35.942Z,926.98
2019-03-18T00:08:36.017Z,926.99
2019-03-18T00:09:36.035Z,927.04
2019-03-18T00:10:36.074Z,927.04
2019-03-18T00:11:36.117Z,927.07
2019-03-18T00:12:36.150Z,927.12
2019-03-18T00:13:36.252Z,927.15
2019-03-18T00:14:36.259Z,927.17
2019-03-18T00:15:36.318Z,927.20
2019-03-18T00:16:36.337Z,927.23
2019-03-18T00:17:36.398Z,927.21
2019-03-18T00:18:36.444Z,927.23
2019-03-18T00:19:36.494Z,927.23
2019-03-18T00:20:36.538Z,927.25
2019-03-18T00:21:36.624Z,927.25
2019-03-18T00:22:36.629Z,927.28
2019-03-18T00:23:36.675Z,927.26
2019-03-18T00:24:36.731Z,927.30
2019-03-18T00:25:36.753Z,927.32
2019-03-18T00:26:36.797Z,927.32
2019-03-18T00:27:36.862Z,927.34
2019-03-18T00:28:36.918Z,927.33
2019-03-18T00:29:36.954Z,927.33
2019-03-18T00:30:37.053Z,927.38
2019-03-18T00:31:37.041Z,927.41
2019-03-18T00:32:37.099Z,927.38
2019-03-18T00:33:37.163Z,927.40
2019-03-18T00:34:37.211Z,927.40
2019-03-18T00:35:37.263Z,927.35
2019-03-18T00:36:37.291Z,927.38
2019-03-18T00:37:37.346Z,927.44
2019-03-18T00:38:37.379Z,927.38
2019-03-18T00:39:37.450Z,927.34
2019-03-18T00:40:37.482Z,927.35
2019-03-18T00:41:37.536Z,927.37
2019-03-18T00:42:37.590Z,927.33
2019-03-18T00:43:37.634Z,927.36
2019-03-18T00:44:37.676Z,927.35
2019-03-18T00:45:40.216Z,927.34
2019-03-18T00:46:37.795Z,927.32
2019-03-18T00:47:37.816Z,927.32
2019-03-18T00:48:37.848Z,927.33
2019-03-18T00:49:37.910Z,927.34
2019-03-18T00:50:37.961Z,927.33
2019-03-18T00:51:37.992Z,927.30
2019-03-18T00:52:38.036Z,927.27
2019-03-18T00:53:38.106Z,927.26
2019-03-18T00:54:38.134Z,927.27
2019-03-18T00:55:38.175Z,927.24
2019-03-18T00:56:38.228Z,927.21
2019-03-18T00:57:38.279Z,927.19
2019-03-18T00:58:38.323Z,927.19
2019-03-18T00:59:38.393Z,927.15
2019-03-18T01:00:38.444Z,927.12
2019-03-18T01:01:38.447Z,927.13
2019-03-18T01:02:38.533Z,927.10
2019-03-18T01:03:38.557Z,927.11
2019-03-18T01:04:38.615Z,927.10
2019-03-18T01:05:38.654Z,927.12
2019-03-18T01:06:38.712Z,927.14
2019-03-18T01:07:38.764Z,927.11
2019-03-18T01:08:38.805Z,927.14
2019-03-18T01:09:38.857Z,927.06
2019-03-18T01:10:38.894Z,927.13
2019-03-18T01:11:38.938Z,927.07
2019-03-18T01:12:38.998Z,927.07
2019-03-18T01:13:39.019Z,927.12
2019-03-18T01:14:39.128Z,927.11
2019-03-18T01:15:39.136Z,927.11
2019-03-18T01:16:39.185Z,927.13
2019-03-18T01:17:39.225Z,927.15
2019-03-18T01:18:39.275Z,927.14
2019-03-18T01:19:39.330Z,927.17
2019-03-18T01:20:39.353Z,927.14
2019-03-18T01:21:39.413Z,927.10
2019-03-18T01:22:39.452Z,927.09
2019-03-18T01:23:39.500Z,927.08
2019-03-18T01:24:39.566Z,927.06
2019-03-18T01:25:39.613Z,927.05
2019-03-18T01:26:39.686Z,927.06
2019-03-18T01:27:39.689Z,927.01
2019-03-18T01:28:39.892Z,927.03
2019-03-18T01:29:39.785Z,926.99
2019-03-18T01:30:39.820Z,926.98
2019-03-18T01:31:39.898Z,926.93
2019-03-18T01:32:39.957Z,926.94
2019-03-18T01:33:39.984Z,926.89
2019-03-18T01:34:40.024Z,926.86
2019-03-18T01:35:40.219Z,926.81
2019-03-18T01:36:40.133Z,926.79
2019-03-18T01:37:40.164Z,926.80
2019-03-18T01:38:40.249Z,926.83
2019-03-18T01:39:40.265Z,926.87
2019-03-18T01:40:40.344Z,926.87
2019-03-18T01:41:40.344Z,926.85
2019-03-18T01:42:40.418Z,926.85
2019-03-18T01:43:40.448Z,926.84
2019-03-18T01:44:40.540Z,926.86
2019-03-18T01:45:41.254Z,926.85
2019-03-18T01:46:40.581Z,926.89
2019-03-18T01:47:40.641Z,926.90
2019-03-18T01:48:40.668Z,926.91
2019-03-18T01:49:40.767Z,926.88
2019-03-18T01:50:40.763Z,926.91
2019-03-18T01:51:40.829Z,926.88
2019-03-18T01:52:40.854Z,926.86
2019-03-18T01:53:40.928Z,926.88
2019-03-18T01:54:41.004Z,926.92
2019-03-18T01:55:40.991Z,926.87
2019-03-18T01:56:41.069Z,926.90
2019-03-18T01:57:41.085Z,926.84
2019-03-18T01:58:41.151Z,926.86
2019-03-18T01:59:41.235Z,926.85
2019-03-18T02:00:41.286Z,926.85
2019-03-18T02:01:41.275Z,926.86
2019-03-18T02:02:41.326Z,926.84
2019-03-18T02:03:41.389Z,926.86
2019-03-18T02:04:41.420Z,926.83
2019-03-18T02:05:41.451Z,926.83
2019-03-18T02:06:41.508Z,926.85
2019-03-18T02:07:41.568Z,926.90
2019-03-18T02:08:41.697Z,926.84
2019-03-18T02:09:41.685Z,926.85
2019-03-18T02:10:41.728Z,926.84
2019-03-18T02:11:41.742Z,926.85
2019-03-18T02:12:41.817Z,926.82
2019-03-18T02:13:41.961Z,926.81
2019-03-18T02:14:41.889Z,926.80
2019-03-18T02:15:52.751Z,926.80
2019-03-18T02:16:42.010Z,926.81
2019-03-18T02:17:42.051Z,926.80
2019-03-18T02:18:42.114Z,926.79
2019-03-18T02:19:42.144Z,926.76
2019-03-18T02:20:42.226Z,926.76
2019-03-18T02:21:42.240Z,926.73
2019-03-18T02:22:42.295Z,926.71
2019-03-18T02:23:42.379Z,926.71
2019-03-18T02:24:42.375Z,926.68
2019-03-18T02:25:42.431Z,926.72
2019-03-18T02:26:42.472Z,926.70
2019-03-18T02:27:42.556Z,926.70
2019-03-18T02:28:42.582Z,926.71
2019-03-18T02:29:42.624Z,926.72
2019-03-18T02:30:42.691Z,926.69
2019-03-18T02:31:42.726Z,926.74
2019-03-18T02:32:42.757Z,926.69
2019-03-18T02:33:42.793Z,926.68
2019-03-18T02:34:42.849Z,926.68
2019-03-18T02:35:42.904Z,926.66
2019-03-18T02:36:42.945Z,926.65
2019-03-18T02:37:43.000Z,926.67
2019-03-18T02:38:43.089Z,926.61
2019-03-18T02:39:43.082Z,926.62
2019-03-18T02:40:43.130Z,926.60
2019-03-18T02:41:43.172Z,926.61
2019-03-18T02:42:43.232Z,926.60
2019-03-18T02:43:43.269Z,926.59
2019-03-18T02:44:43.334Z,926.61
2019-03-18T02:45:43.349Z,926.62
2019-03-18T02:46:43.414Z,926.63
2019-03-18T02:47:43.516Z,926.58
2019-03-18T02:48:43.529Z,926.59
2019-03-18T02:49:43.570Z,926.57
2019-03-18T02:50:43.622Z,926.58
2019-03-18T02:51:43.639Z,926.55
2019-03-18T02:52:43.730Z,926.61
2019-03-18T02:53:43.749Z,926.60
2019-03-18T02:54:43.803Z,926.61
2019-03-18T02:55:43.836Z,926.59
2019-03-18T02:56:43.898Z,926.57
2019-03-18T02:57:43.976Z,926.58
2019-03-18T02:58:44.001Z,926.58
2019-03-18T02:59:44.083Z,926.55
2019-03-18T03:00:44.083Z,926.55
2019-03-18T03:01:44.120Z,926.52
2019-03-18T03:02:44.175Z,926.51
2019-03-18T03:03:44.229Z,926.43
2019-03-18T03:04:44.289Z,926.41
2019-03-18T03:05:44.320Z,926.43
2019-03-18T03:06:44.392Z,926.39
2019-03-18T03:07:44.420Z,926.40
2019-03-18T03:08:44.479Z,926.39
2019-03-18T03:09:44.531Z,926.41
2019-03-18T03:10:44.577Z,926.44
2019-03-18T03:11:44.689Z,926.46
2019-03-18T03:12:44.671Z,926.52
2019-03-18T03:13:44.730Z,926.53
2019-03-18T03:14:44.760Z,926.50
2019-03-18T03:15:44.798Z,926.52
2019-03-18T03:16:44.845Z,926.52
2019-03-18T03:17:44.902Z,926.52
2019-03-18T03:18:44.940Z,926.52
2019-03-18T03:19:44.959Z,926.49
2019-03-18T03:20:45.032Z,926.48
2019-03-18T03:21:45.073Z,926.45
2019-03-18T03:22:45.126Z,926.43
2019-03-18T03:23:45.185Z,926.45
2019-03-18T03:24:45.213Z,926.46
2019-03-18T03:25:45.270Z,926.46
2019-03-18T03:26:45.318Z,926.49
2019-03-18T03:27:45.368Z,926.49
2019-03-18T03:28:45.405Z,926.52
2019-03-18T03:29:45.462Z,926.53
2019-03-18T03:30:45.552Z,926.50
2019-03-18T03:31:45.528Z,926.46
2019-03-18T03:32:45.635Z,926.48
2019-03-18T03:33:45.647Z,926.47
2019-03-18T03:34:45.679Z,926.48
2019-03-18T03:35:45.738Z,926.45
2019-03-18T03:36:45.785Z,926.41
2019-03-18T03:37:45.825Z,926.42
2019-03-18T03:38:45.885Z,926.39
2019-03-18T03:39:45.926Z,926.42
2019-03-18T03:40:45.971Z,926.37
2019-03-18T03:41:46.065Z,926.36
2019-03-18T03:42:46.054Z,926.36
2019-03-18T03:43:46.085Z,926.37
2019-03-18T03:44:46.164Z,926.33
2019-03-18T03:45:46.205Z,926.27
2019-03-18T03:46:46.247Z,926.27
2019-03-18T03:47:46.295Z,926.24
2019-03-18T03:48:46.345Z,926.23
2019-03-18T03:49:46.409Z,926.19
2019-03-18T03:50:46.445Z,926.18
2019-03-18T03:51:46.487Z,926.18
2019-03-18T03:52:46.540Z,926.16
2019-03-18T03:53:46.592Z,926.18
2019-03-18T03:54:46.697Z,926.16
2019-03-18T03:55:46.677Z,926.14
2019-03-18T03:56:46.743Z,926.15
2019-03-18T03:57:46.806Z,926.17
2019-03-18T03:58:46.826Z,926.19
2019-03-18T03:59:46.885Z,926.17
2019-03-18T04:00:46.919Z,926.14
2019-03-18T04:01:46.990Z,926.12
2019-03-18T04:02:47.016Z,926.13
2019-03-18T04:03:47.099Z,926.11
2019-03-18T04:04:47.113Z,926.11
2019-03-18T04:05:47.157Z,926.10
2019-03-18T04:06:47.200Z,926.12
2019-03-18T04:07:47.245Z,926.11
2019-03-18T04:08:47.302Z,926.11
2019-03-18T04:09:47.347Z,926.11
2019-03-18T04:10:47.417Z,926.11
2019-03-18T04:11:47.453Z,926.10
2019-03-18T04:12:47.474Z,926.10
2019-03-18T04:13:47.534Z,926.08
2019-03-18T04:14:47.617Z,926.04
2019-03-18T04:15:47.623Z,926.00
2019-03-18T04:17:00.787Z,925.97
2019-03-18T04:17:47.707Z,925.97
2019-03-18T04:18:47.763Z,925.96
2019-03-18T04:19:47.811Z,925.93
2019-03-18T04:20:47.852Z,925.92
2019-03-18T04:21:50.672Z,925.87
2019-03-18T04:22:47.983Z,925.91
2019-03-18T04:23:48.008Z,925.90
2019-03-18T04:24:48.067Z,925.88
2019-03-18T04:25:48.112Z,925.89
2019-03-18T04:26:48.152Z,925.87
2019-03-18T04:27:48.179Z,925.90
2019-03-18T04:28:48.251Z,925.86
2019-03-18T04:29:48.288Z,925.81
2019-03-18T04:30:48.382Z,925.81
2019-03-18T04:31:48.391Z,925.78
2019-03-18T04:32:48.473Z,925.80
2019-03-18T04:33:48.517Z,925.76
2019-03-18T04:34:48.503Z,925.76
2019-03-18T04:35:48.560Z,925.79
2019-03-18T04:36:48.618Z,925.81
2019-03-18T04:37:48.666Z,925.77
2019-03-18T04:38:48.704Z,925.74
2019-03-18T04:39:48.737Z,925.68
2019-03-18T04:40:48.825Z,925.70
2019-03-18T04:41:48.882Z,925.71
2019-03-18T04:42:48.885Z,925.72
2019-03-18T04:43:48.955Z,925.71
2019-03-18T04:44:48.995Z,925.66
2019-03-18T04:45:49.046Z,925.67
2019-03-18T04:46:49.087Z,925.68
2019-03-18T04:47:49.109Z,925.68
2019-03-18T04:48:49.169Z,925.68
2019-03-18T04:49:49.209Z,925.72
2019-03-18T04:50:49.376Z,925.69
2019-03-18T04:51:49.308Z,925.68
2019-03-18T04:52:49.355Z,925.69
2019-03-18T04:53:49.414Z,925.65
2019-03-18T04:54:49.458Z,925.66
2019-03-18T04:55:49.502Z,925.60
2019-03-18T04:56:49.543Z,925.58
2019-03-18T04:57:49.591Z,925.57
2019-03-18T04:58:49.640Z,925.55
2019-03-18T04:59:49.689Z,925.56
2019-03-18T05:00:49.729Z,925.53
2019-03-18T05:01:49.788Z,925.54
2019-03-18T05:02:49.815Z,925.57
2019-03-18T05:03:49.878Z,925.52
2019-03-18T05:04:49.915Z,925.51
2019-03-18T05:05:49.979Z,925.46
2019-03-18T05:06:50.004Z,925.41
2019-03-18T05:07:50.047Z,925.40
2019-03-18T05:08:50.093Z,925.39
2019-03-18T05:09:50.162Z,925.39
2019-03-18T05:10:50.203Z,925.37
2019-03-18T05:11:50.273Z,925.35
2019-03-18T05:12:50.301Z,925.37
2019-03-18T05:13:50.375Z,925.28
2019-03-18T05:14:50.379Z,925.33
2019-03-18T05:15:50.441Z,925.30
2019-03-18T05:16:50.451Z,925.32
2019-03-18T05:17:50.539Z,925.31
2019-03-18T05:18:50.618Z,925.28
2019-03-18T05:19:50.600Z,925.27
2019-03-18T05:20:50.671Z,925.23
2019-03-18T05:21:50.720Z,925.25
2019-03-18T05:22:50.776Z,925.21
2019-03-18T05:23:50.815Z,925.18
2019-03-18T05:24:50.848Z,925.23
2019-03-18T05:25:50.893Z,925.17
2019-03-18T05:26:50.925Z,925.18
2019-03-18T05:27:50.995Z,925.18
2019-03-18T05:28:51.081Z,925.18
2019-03-18T05:29:51.097Z,925.23
2019-03-18T05:30:51.139Z,925.22
2019-03-18T05:31:51.186Z,925.20
2019-03-18T05:32:51.230Z,925.20
2019-03-18T05:33:51.272Z,925.17
2019-03-18T05:34:51.326Z,925.16
2019-03-18T05:35:51.376Z,925.13
2019-03-18T05:36:51.404Z,925.11
2019-03-18T05:37:51.445Z,925.07
2019-03-18T05:38:51.506Z,925.05
2019-03-18T05:39:51.521Z,925.02
2019-03-18T05:40:51.586Z,924.99
2019-03-18T05:41:51.626Z,925.02
2019-03-18T05:42:51.691Z,924.94
2019-03-18T05:43:51.721Z,924.94
2019-03-18T05:44:51.759Z,924.95
2019-03-18T05:45:51.833Z,924.90
2019-03-18T05:46:51.872Z,924.93
2019-03-18T05:47:51.928Z,924.90
2019-03-18T05:48:51.969Z,924.96
2019-03-18T05:49:53.922Z,924.92
2019-03-18T05:50:52.056Z,924.95
2019-03-18T05:51:52.091Z,924.94
2019-03-18T05:52:52.153Z,924.99
2019-03-18T05:53:52.189Z,924.96
2019-03-18T05:54:52.259Z,925.03
2019-03-18T05:55:52.279Z,925.02
2019-03-18T05:56:52.516Z,925.00
2019-03-18T05:57:52.382Z,925.02
2019-03-18T05:58:52.423Z,925.00
2019-03-18T05:59:52.464Z,925.00
2019-03-18T06:00:52.538Z,924.98
2019-03-18T06:01:52.563Z,924.98
2019-03-18T06:02:52.615Z,924.92
2019-03-18T06:03:52.649Z,924.95
2019-03-18T06:04:52.693Z,924.92
2019-03-18T06:05:52.763Z,924.92
2019-03-18T06:06:52.805Z,924.93
2019-03-18T06:07:52.858Z,924.91
2019-03-18T06:08:52.946Z,924.93
2019-03-18T06:09:52.958Z,924.96
2019-03-18T06:10:52.975Z,924.93
2019-03-18T06:11:53.040Z,924.94
2019-03-18T06:12:53.086Z,924.91
2019-03-18T06:13:56.304Z,924.92
2019-03-18T06:14:53.183Z,924.89
2019-03-18T06:15:53.238Z,924.89
2019-03-18T06:16:53.267Z,924.89
2019-03-18T06:17:53.363Z,924.88
2019-03-18T06:18:53.364Z,924.87
2019-03-18T06:19:53.566Z,924.85
2019-03-18T06:20:53.439Z,924.86
2019-03-18T06:21:53.498Z,924.87
2019-03-18T06:22:53.527Z,924.85
2019-03-18T06:23:53.633Z,924.83
2019-03-18T06:24:53.628Z,924.79
2019-03-18T06:25:53.849Z,924.81
2019-03-18T06:26:53.732Z,924.75
2019-03-18T06:27:53.766Z,924.74
2019-03-18T06:28:53.823Z,924.71
2019-03-18T06:29:53.899Z,924.69
2019-03-18T06:30:53.927Z,924.69
2019-03-18T06:31:53.972Z,924.70
2019-03-18T06:32:53.998Z,924.65
2019-03-18T06:33:54.061Z,924.63
2019-03-18T06:34:54.102Z,924.61
2019-03-18T06:35:54.151Z,924.61
2019-03-18T06:36:54.186Z,924.61
2019-03-18T06:37:54.237Z,924.56
2019-03-18T06:38:54.307Z,924.55
2019-03-18T06:39:54.333Z,924.54
2019-03-18T06:40:54.377Z,924.53
2019-03-18T06:41:54.425Z,924.52
2019-03-18T06:42:54.491Z,924.55
2019-03-18T06:43:54.524Z,924.58
2019-03-18T06:44:54.614Z,924.58
2019-03-18T06:45:54.616Z,924.57
2019-03-18T06:46:54.673Z,924.59
2019-03-18T06:48:04.223Z,924.56
2019-03-18T06:48:54.735Z,924.56
2019-03-18T06:49:54.802Z,924.54
2019-03-18T06:50:54.832Z,924.50
2019-03-18T06:51:54.881Z,924.46
2019-03-18T06:52:54.928Z,924.46
2019-03-18T06:53:54.987Z,924.44
2019-03-18T06:54:55.010Z,924.44
2019-03-18T06:55:55.088Z,924.41
2019-03-18T06:56:55.130Z,924.39
2019-03-18T06:57:55.203Z,924.40
2019-03-18T06:58:55.249Z,924.34
2019-03-18T06:59:55.244Z,924.37
2019-03-18T07:00:55.296Z,924.41
2019-03-18T07:01:55.342Z,924.43
2019-03-18T07:02:55.435Z,924.44
2019-03-18T07:03:55.447Z,924.47
2019-03-18T07:04:55.503Z,924.44
2019-03-18T07:05:55.524Z,924.47
2019-03-18T07:06:55.588Z,924.46
2019-03-18T07:07:55.650Z,924.44
2019-03-18T07:08:55.673Z,924.41
2019-03-18T07:09:55.759Z,924.43
2019-03-18T07:10:55.814Z,924.42
2019-03-18T07:11:56.013Z,924.39
2019-03-18T07:12:55.855Z,924.39
2019-03-18T07:13:55.901Z,924.39
2019-03-18T07:14:55.943Z,924.39
2019-03-18T07:15:55.992Z,924.42
2019-03-18T07:16:56.049Z,924.41
2019-03-18T07:17:56.092Z,924.45
2019-03-18T07:18:56.133Z,924.44
2019-03-18T07:19:56.174Z,924.52
2019-03-18T07:20:56.251Z,924.51
2019-03-18T07:21:56.333Z,924.52
2019-03-18T07:22:56.323Z,924.59
2019-03-18T07:23:56.355Z,924.53
2019-03-18T07:24:56.427Z,924.60
2019-03-18T07:25:56.452Z,924.62
2019-03-18T07:26:56.500Z,924.59
2019-03-18T07:27:56.595Z,924.59
2019-03-18T07:28:56.624Z,924.60
2019-03-18T07:29:56.629Z,924.56
2019-03-18T07:30:56.704Z,924.57
2019-03-18T07:31:56.718Z,924.56
2019-03-18T07:32:56.901Z,924.52
2019-03-18T07:33:59.724Z,924.53
2019-03-18T07:34:56.888Z,924.50
2019-03-18T07:35:56.929Z,924.54
2019-03-18T07:36:56.955Z,924.52
2019-03-18T07:37:57.021Z,924.55
2019-03-18T07:38:57.116Z,924.55
2019-03-18T07:39:57.127Z,924.57
2019-03-18T07:40:57.168Z,924.60
2019-03-18T07:41:57.215Z,924.60
2019-03-18T07:42:57.261Z,924.57
2019-03-18T07:43:57.301Z,924.58
2019-03-18T07:44:57.350Z,924.54
2019-03-18T07:45:57.397Z,924.54
2019-03-18T07:46:57.443Z,924.55
2019-03-18T07:47:57.477Z,924.53
2019-03-18T07:48:57.529Z,924.51
2019-03-18T07:49:57.576Z,924.56
2019-03-18T07:50:57.614Z,924.58
2019-03-18T07:51:57.664Z,924.52
2019-03-18T07:52:57.715Z,924.55
2019-03-18T07:53:57.757Z,924.55
2019-03-18T07:54:57.822Z,924.56
2019-03-18T07:55:57.857Z,924.51
2019-03-18T07:56:57.947Z,924.53
2019-03-18T07:57:57.992Z,924.52
2019-03-18T07:58:58.001Z,924.53
2019-03-18T07:59:58.206Z,924.47
2019-03-18T08:00:58.177Z,924.51
2019-03-18T08:01:58.171Z,924.56
2019-03-18T08:02:58.223Z,924.59
2019-03-18T08:03:58.216Z,924.60
2019-03-18T08:04:58.277Z,924.63
2019-03-18T08:05:58.335Z,924.57
2019-03-18T08:06:58.360Z,924.57
2019-03-18T08:07:58.390Z,924.56
2019-03-18T08:08:58.456Z,924.60
2019-03-18T08:09:58.546Z,924.57
2019-03-18T08:10:58.542Z,924.56
2019-03-18T08:11:58.599Z,924.58
2019-03-18T08:12:58.645Z,924.58
2019-03-18T08:13:58.726Z,924.59
2019-03-18T08:14:58.725Z,924.59
2019-03-18T08:15:58.778Z,924.58
2019-03-18T08:16:58.856Z,924.57
2019-03-18T08:17:58.939Z,924.55
2019-03-18T08:18:58.909Z,924.58
2019-03-18T08:19:58.948Z,924.60
2019-03-18T08:20:59.166Z,924.61
2019-03-18T08:21:59.059Z,924.66
2019-03-18T08:22:59.127Z,924.68
2019-03-18T08:23:59.166Z,924.66
2019-03-18T08:24:59.203Z,924.64
2019-03-18T08:25:59.245Z,924.63
2019-03-18T08:26:59.299Z,924.61
2019-03-18T08:27:59.333Z,924.65
2019-03-18T08:28:59.379Z,924.64
2019-03-18T08:29:59.426Z,924.60
2019-03-18T08:30:59.493Z,924.59
2019-03-18T08:31:59.612Z,924.58
2019-03-18T08:32:59.551Z,924.62
2019-03-18T08:33:59.636Z,924.66
2019-03-18T08:34:59.673Z,924.64
2019-03-18T08:35:59.706Z,924.68
2019-03-18T08:36:59.752Z,924.69
2019-03-18T08:37:59.850Z,924.68
2019-03-18T08:38:59.839Z,924.71
2019-03-18T08:39:59.931Z,924.68
2019-03-18T08:40:59.986Z,924.70
2019-03-18T08:41:59.978Z,924.73
2019-03-18T08:43:00.046Z,924.68
2019-03-18T08:44:00.057Z,924.75
2019-03-18T08:45:00.122Z,924.71
2019-03-18T08:46:00.205Z,924.71
2019-03-18T08:47:00.217Z,924.68
2019-03-18T08:48:00.254Z,924.68
2019-03-18T08:49:00.420Z,924.67
2019-03-18T08:50:00.387Z,924.65
2019-03-18T08:51:00.414Z,924.64
2019-03-18T08:52:00.449Z,924.63
2019-03-18T08:53:00.493Z,924.64
2019-03-18T08:54:00.561Z,924.67
2019-03-18T08:55:00.642Z,924.67
2019-03-18T08:56:00.621Z,924.65
2019-03-18T08:57:00.765Z,924.69
2019-03-18T08:58:00.736Z,924.68
2019-03-18T08:59:00.771Z,924.69
2019-03-18T09:00:00.823Z,924.72
2019-03-18T09:01:00.914Z,924.73
2019-03-18T09:02:00.948Z,924.74
2019-03-18T09:03:00.956Z,924.72
2019-03-18T09:04:01.043Z,924.72
2019-03-18T09:05:01.039Z,924.68
2019-03-18T09:06:01.139Z,924.71
2019-03-18T09:07:01.147Z,924.69
2019-03-18T09:08:01.215Z,924.70
2019-03-18T09:09:01.232Z,924.71
2019-03-18T09:10:01.307Z,924.71
2019-03-18T09:11:01.327Z,924.75
2019-03-18T09:12:01.403Z,924.75
2019-03-18T09:13:01.427Z,924.78
2019-03-18T09:14:01.500Z,924.85
2019-03-18T09:15:01.512Z,924.84
2019-03-18T09:16:01.548Z,924.90
2019-03-18T09:17:01.600Z,924.90
2019-03-18T09:18:01.657Z,924.94
2019-03-18T09:19:08.501Z,924.95
2019-03-18T09:20:01.791Z,924.94
2019-03-18T09:21:01.830Z,924.90
2019-03-18T09:22:01.830Z,924.89
2019-03-18T09:23:01.917Z,924.92
2019-03-18T09:24:01.918Z,924.91
2019-03-18T09:25:01.965Z,924.93
2019-03-18T09:26:02.010Z,924.96
2019-03-18T09:27:02.852Z,924.95
2019-03-18T09:28:02.104Z,925.00
2019-03-18T09:29:02.136Z,925.02
2019-03-18T09:30:02.189Z,925.02
2019-03-18T09:31:02.243Z,925.09
2019-03-18T09:32:02.384Z,925.02
2019-03-18T09:33:02.332Z,925.05
2019-03-18T09:34:02.384Z,925.02
2019-03-18T09:35:02.438Z,925.06
2019-03-18T09:36:02.465Z,925.06
2019-03-18T09:37:02.506Z,925.09
2019-03-18T09:38:02.575Z,925.07
2019-03-18T09:39:02.591Z,925.10
2019-03-18T09:40:02.672Z,925.14
2019-03-18T09:41:02.714Z,925.14
2019-03-18T09:42:02.768Z,925.16
2019-03-18T09:43:02.856Z,925.17
2019-03-18T09:44:02.842Z,925.21
2019-03-18T09:45:02.899Z,925.24
2019-03-18T09:46:02.923Z,925.23
2019-03-18T09:47:03.023Z,925.24
2019-03-18T09:48:03.016Z,925.24
2019-03-18T09:49:03.066Z,925.22
2019-03-18T09:50:03.102Z,925.22
2019-03-18T09:51:03.186Z,925.22
2019-03-18T09:52:03.230Z,925.28
2019-03-18T09:53:03.262Z,925.28
2019-03-18T09:54:03.281Z,925.30
2019-03-18T09:55:03.356Z,925.31
2019-03-18T09:56:03.382Z,925.29
2019-03-18T09:57:03.437Z,925.34
2019-03-18T09:58:03.501Z,925.39
2019-03-18T09:59:03.547Z,925.37
2019-03-18T10:00:03.585Z,925.37
2019-03-18T10:01:03.633Z,925.41
2019-03-18T10:02:03.715Z,925.41
2019-03-18T10:03:03.778Z,925.43
2019-03-18T10:04:03.792Z,925.43
2019-03-18T10:05:03.842Z,925.49
2019-03-18T10:06:03.874Z,925.55
2019-03-18T10:07:03.913Z,925.56
2019-03-18T10:08:03.948Z,925.53
2019-03-18T10:09:04.009Z,925.55
2019-03-18T10:10:04.058Z,925.58
2019-03-18T10:11:04.082Z,925.67
2019-03-18T10:12:04.135Z,925.64
2019-03-18T10:13:04.208Z,925.69
2019-03-18T10:14:04.248Z,925.71
2019-03-18T10:15:04.294Z,925.66
2019-03-18T10:16:04.350Z,925.67
2019-03-18T10:17:09.654Z,925.67
2019-03-18T10:18:04.429Z,925.66
2019-03-18T10:19:04.523Z,925.65
2019-03-18T10:20:04.516Z,925.68
2019-03-18T10:21:04.566Z,925.67
2019-03-18T10:22:04.624Z,925.66
2019-03-18T10:23:04.649Z,925.71
2019-03-18T10:24:04.687Z,925.73
2019-03-18T10:25:04.762Z,925.74
2019-03-18T10:26:04.813Z,925.73
2019-03-18T10:27:04.864Z,925.72
2019-03-18T10:28:04.895Z,925.77
2019-03-18T10:29:04.991Z,925.79
2019-03-18T10:30:05.029Z,925.79
2019-03-18T10:31:05.057Z,925.87
2019-03-18T10:32:05.108Z,925.85
2019-03-18T10:33:05.137Z,925.89
2019-03-18T10:34:05.192Z,925.90
2019-03-18T10:35:05.224Z,925.89
2019-03-18T10:36:05.313Z,925.94
2019-03-18T10:37:05.321Z,925.93
2019-03-18T10:38:05.379Z,925.97
2019-03-18T10:39:05.408Z,926.00
2019-03-18T10:40:05.469Z,926.04
2019-03-18T10:41:05.517Z,926.02
2019-03-18T10:42:05.573Z,926.03
2019-03-18T10:43:05.601Z,926.02
2019-03-18T10:44:05.665Z,926.03
2019-03-18T10:45:05.695Z,926.08
2019-03-18T10:46:05.759Z,926.07
2019-03-18T10:47:05.803Z,926.07
2019-03-18T10:48:05.844Z,926.08
2019-03-18T10:49:05.910Z,926.12
2019-03-18T10:50:05.962Z,926.14
2019-03-18T10:51:05.995Z,926.17
2019-03-18T10:52:06.063Z,926.17
2019-03-18T10:53:06.120Z,926.20
2019-03-18T10:54:06.149Z,926.20
2019-03-18T10:55:06.192Z,926.24
2019-03-18T10:56:08.075Z,926.31
2019-03-18T10:57:06.281Z,926.31
2019-03-18T10:58:06.341Z,926.35
2019-03-18T10:59:06.395Z,926.38
2019-03-18T11:00:06.419Z,926.41
2019-03-18T11:01:06.494Z,926.40
2019-03-18T11:02:06.566Z,926.42
2019-03-18T11:03:06.585Z,926.44
2019-03-18T11:04:06.631Z,926.40
2019-03-18T11:05:08.235Z,926.44
2019-03-18T11:06:06.763Z,926.45
2019-03-18T11:07:06.785Z,926.41
2019-03-18T11:08:06.839Z,926.47
2019-03-18T11:09:06.882Z,926.48
2019-03-18T11:10:06.978Z,926.47
2019-03-18T11:11:06.969Z,926.46
2019-03-18T11:12:07.055Z,926.45
2019-03-18T11:13:07.099Z,926.44
2019-03-18T11:14:07.137Z,926.45
2019-03-18T11:15:07.201Z,926.48
2019-03-18T11:16:07.261Z,926.45
2019-03-18T11:17:07.311Z,926.46
2019-03-18T11:18:07.348Z,926.45
2019-03-18T11:19:07.420Z,926.45
2019-03-18T11:20:07.448Z,926.54
2019-03-18T11:21:07.507Z,926.52
2019-03-18T11:22:07.558Z,926.54
2019-03-18T11:23:07.652Z,926.54
2019-03-18T11:24:07.679Z,926.53
2019-03-18T11:25:07.724Z,926.60
2019-03-18T11:26:07.805Z,926.53
2019-03-18T11:27:07.866Z,926.50
2019-03-18T11:28:07.876Z,926.56
2019-03-18T11:29:07.981Z,926.57
2019-03-18T11:30:08.001Z,926.52
2019-03-18T11:31:08.036Z,926.48
2019-03-18T11:32:08.114Z,926.47
2019-03-18T11:33:08.141Z,926.51
2019-03-18T11:34:08.358Z,926.52
2019-03-18T11:35:08.258Z,926.52
2019-03-18T11:36:08.297Z,926.50
2019-03-18T11:37:08.399Z,926.50
2019-03-18T11:38:08.414Z,926.52
2019-03-18T11:39:08.449Z,926.52
2019-03-18T11:40:08.516Z,926.46
2019-03-18T11:41:08.574Z,926.45
2019-03-18T11:42:08.609Z,926.48
2019-03-18T11:43:08.725Z,926.46
2019-03-18T11:44:08.707Z,926.46
2019-03-18T11:45:08.767Z,926.48
2019-03-18T11:46:08.833Z,926.55
2019-03-18T11:47:08.894Z,926.59
2019-03-18T11:48:08.943Z,926.60
2019-03-18T11:49:08.996Z,926.51
2019-03-18T11:50:11.498Z,926.52
2019-03-18T11:51:09.122Z,926.51
2019-03-18T11:52:09.151Z,926.52
2019-03-18T11:53:14.380Z,926.52
2019-03-18T11:54:09.271Z,926.49
2019-03-18T11:55:09.305Z,926.55
2019-03-18T11:56:09.362Z,926.50
2019-03-18T11:57:09.405Z,926.45
2019-03-18T11:58:09.476Z,926.46
2019-03-18T11:59:09.533Z,926.44
2019-03-18T12:00:09.556Z,926.44
2019-03-18T12:01:09.636Z,926.44
2019-03-18T12:02:09.699Z,926.49
2019-03-18T12:03:09.795Z,926.50
2019-03-18T12:04:09.798Z,926.47
2019-03-18T12:05:09.853Z,926.48
2019-03-18T12:06:09.912Z,926.54
2019-03-18T12:07:09.975Z,926.53
2019-03-18T12:08:10.028Z,926.51
2019-03-18T12:09:10.077Z,926.53
2019-03-18T12:10:10.111Z,926.56
2019-03-18T12:11:10.296Z,926.55
2019-03-18T12:12:13.215Z,926.60
2019-03-18T12:13:10.323Z,926.55
2019-03-18T12:14:10.356Z,926.53
2019-03-18T12:15:10.412Z,926.54
2019-03-18T12:16:10.466Z,926.56
2019-03-18T12:17:10.537Z,926.48
2019-03-18T12:18:10.594Z,926.47
2019-03-18T12:19:10.646Z,926.47
2019-03-18T12:20:23.162Z,926.47
2019-03-18T12:21:10.759Z,926.49
2019-03-18T12:22:10.809Z,926.49
2019-03-18T12:23:10.865Z,926.51
2019-03-18T12:24:10.903Z,926.50
2019-03-18T12:25:11.034Z,926.53
2019-03-18T12:26:11.057Z,926.59
2019-03-18T12:27:11.112Z,926.53
2019-03-18T12:28:11.171Z,926.56
2019-03-18T12:29:11.226Z,926.52